Terminal Aerodrome Forecast
Issued by NWS

Home | Current Version | Previous Version | Text Only | Print | Product List | Glossary On
Versions: 1 2 3 4 5 6 7 8 9 10 11 12 13 14 15 16 17 18 19 20 21 22 23 24 25 26 27 28 29 30 31 32 33 34
000
FTUS45 KBOU 192204 AAA
TAFBJC
TAF AMD
KBJC 192204Z 1922/2018 27008KT P6SM FEW080 FEW120
     FM200300 24006KT P6SM FEW150 SCT200
     FM201400 30007KT P6SM FEW120 SCT200=

USA.gov is the U.S. government's official web portal to all federal, state and local government web resources and services.